createdAt,value
2019-05-20T00:02:28.018Z,25.57
2019-05-20T00:05:05.662Z,25.43
2019-05-20T00:07:46.915Z,27.77
2019-05-20T00:13:09.568Z,17.80
2019-05-20T00:15:50.833Z,23.90
2019-05-20T00:18:32.222Z,25.20
2019-05-20T00:21:12.772Z,22.13
2019-05-20T00:23:53.532Z,22.83
2019-05-20T00:26:34.349Z,24.03
2019-05-20T00:29:15.789Z,27.23
2019-05-20T00:31:57.276Z,25.03
2019-05-20T00:34:38.069Z,29.27
2019-05-20T00:37:19.462Z,31.60
2019-05-20T00:40:00.114Z,27.60
2019-05-20T00:42:41.566Z,29.90
2019-05-20T00:45:22.469Z,27.13
2019-05-20T00:48:03.060Z,24.50
2019-05-20T00:50:43.694Z,24.57
2019-05-20T00:53:24.384Z,25.47
2019-05-20T00:56:04.947Z,22.00
2019-05-20T00:58:46.005Z,22.23
2019-05-20T01:01:27.181Z,25.97
2019-05-20T01:04:08.583Z,23.63
2019-05-20T01:06:50.008Z,22.83
2019-05-20T01:09:31.515Z,27.87
2019-05-20T01:12:12.175Z,27.70
2019-05-20T01:14:52.951Z,22.77
2019-05-20T01:17:33.718Z,26.10
2019-05-20T01:20:14.425Z,25.37
2019-05-20T01:22:55.058Z,22.17
2019-05-20T01:25:36.072Z,24.77
2019-05-20T01:28:16.614Z,22.73
2019-05-20T01:30:58.071Z,27.07
2019-05-20T01:33:39.320Z,23.60
2019-05-20T01:36:19.995Z,27.93
2019-05-20T01:39:00.702Z,22.37
2019-05-20T01:41:40.245Z,26.80
2019-05-20T01:44:28.641Z,26.83
2019-05-20T01:47:17.102Z,28.17
2019-05-20T01:50:05.648Z,30.20
2019-05-20T01:52:54.038Z,31.53
2019-05-20T02:04:24.904Z,25.73
2019-05-20T02:10:07.453Z,25.23
2019-05-20T02:12:55.839Z,28.80
2019-05-20T02:16:03.190Z,30.87
2019-05-20T02:18:51.611Z,37.50
2019-05-20T02:21:40.014Z,40.67
2019-05-20T02:27:22.433Z,43.33
2019-05-20T02:33:05.200Z,55.00
2019-05-20T02:35:46.602Z,57.93
2019-05-20T02:38:27.188Z,55.07
2019-05-20T02:41:07.816Z,58.03
2019-05-20T02:43:48.648Z,62.20
2019-05-20T02:46:30.006Z,63.20
2019-05-20T02:55:33.990Z,66.40
2019-05-20T02:58:15.585Z,62.80
2019-05-20T03:00:57.039Z,66.50
2019-05-20T03:03:38.627Z,59.97
2019-05-20T03:06:19.540Z,57.27
2019-05-20T03:09:00.276Z,60.77
2019-05-20T03:11:41.792Z,57.37
2019-05-20T03:14:23.163Z,52.70
2019-05-20T03:17:04.312Z,57.60
2019-05-20T03:19:44.860Z,51.90
2019-05-20T03:22:25.525Z,56.20
2019-05-20T03:25:06.427Z,64.00
2019-05-20T03:27:47.591Z,61.03
2019-05-20T03:30:28.806Z,62.77
2019-05-20T03:33:10.197Z,65.53
2019-05-20T03:35:50.813Z,69.53
2019-05-20T03:38:31.535Z,67.10
2019-05-20T03:41:12.157Z,60.83
2019-05-20T03:43:53.495Z,65.60
2019-05-20T03:46:34.192Z,60.33
2019-05-20T03:49:15.033Z,64.60
2019-05-20T03:51:56.539Z,59.60
2019-05-20T03:54:37.302Z,57.50
2019-05-20T03:57:18.530Z,56.87
2019-05-20T03:59:59.091Z,61.73
2019-05-20T04:02:40.210Z,67.83
2019-05-20T04:05:21.633Z,61.70
2019-05-20T04:08:02.250Z,63.93
2019-05-20T04:10:42.982Z,67.50
2019-05-20T04:13:23.854Z,68.20
2019-05-20T04:16:05.319Z,60.80
2019-05-20T04:18:46.756Z,55.30
2019-05-20T04:21:28.219Z,54.33
2019-05-20T04:24:09.188Z,56.03
2019-05-20T04:26:49.794Z,55.67
2019-05-20T04:29:30.575Z,63.03
2019-05-20T04:32:11.213Z,53.13
2019-05-20T04:34:51.816Z,53.03
2019-05-20T04:37:33.141Z,47.13
2019-05-20T04:40:14.753Z,50.27
2019-05-20T04:42:55.370Z,44.73
2019-05-20T04:45:36.125Z,45.30
2019-05-20T04:48:16.776Z,53.77
2019-05-20T04:50:57.454Z,42.30
2019-05-20T04:53:38.948Z,41.67
2019-05-20T04:56:20.404Z,35.53
2019-05-20T04:59:01.585Z,38.30
2019-05-20T05:01:43.050Z,41.33
2019-05-20T05:04:23.661Z,39.60
2019-05-20T05:07:04.247Z,43.47
2019-05-20T05:09:45.057Z,37.67
2019-05-20T05:12:26.467Z,36.00
2019-05-20T05:15:08.199Z,37.80
2019-05-20T05:17:49.527Z,44.50
2019-05-20T05:20:30.369Z,41.10
2019-05-20T05:23:11.916Z,46.37
2019-05-20T05:25:52.978Z,40.57
2019-05-20T05:28:34.383Z,40.33
2019-05-20T05:31:13.810Z,43.97
2019-05-20T05:34:02.247Z,48.47
2019-05-20T05:36:50.662Z,58.00
2019-05-20T05:39:39.112Z,62.40
2019-05-20T05:42:27.493Z,58.67
2019-05-20T05:48:03.132Z,57.63
2019-05-20T05:50:44.640Z,49.33
2019-05-20T05:53:25.352Z,57.80
2019-05-20T05:56:06.021Z,53.50
2019-05-20T05:58:46.740Z,46.40
2019-05-20T06:01:27.476Z,45.63
2019-05-20T06:04:08.885Z,41.10
2019-05-20T06:06:49.536Z,38.07
2019-05-20T06:09:31.041Z,38.00
2019-05-20T06:12:12.551Z,32.43
2019-05-20T06:14:53.228Z,31.57
2019-05-20T06:17:33.905Z,33.67
2019-05-20T06:20:14.471Z,34.00
2019-05-20T06:22:55.799Z,29.23
2019-05-20T06:25:37.174Z,41.03
2019-05-20T06:28:18.515Z,37.90
2019-05-20T06:30:59.611Z,40.70
2019-05-20T06:33:40.759Z,34.23
2019-05-20T06:36:26.983Z,32.83
2019-05-20T06:42:01.743Z,34.80
2019-05-20T06:44:52.335Z,31.90
2019-05-20T06:47:25.594Z,39.87
2019-05-20T06:50:08.731Z,38.40
2019-05-20T06:52:49.225Z,33.13
2019-05-20T06:55:29.787Z,34.80
2019-05-20T06:58:11.104Z,33.20
2019-05-20T07:00:52.653Z,30.30
2019-05-20T07:03:32.235Z,37.63
2019-05-20T07:06:20.648Z,36.57
2019-05-20T07:09:09.047Z,34.63
2019-05-20T07:11:38.501Z,30.43
2019-05-20T07:14:09.640Z,32.00
2019-05-20T07:16:38.970Z,26.90
2019-05-20T07:19:08.321Z,28.90
2019-05-20T07:21:37.677Z,26.20
2019-05-20T07:24:06.963Z,29.47
2019-05-20T07:26:36.366Z,30.53
2019-05-20T07:29:05.718Z,28.53
2019-05-20T07:31:35.064Z,28.93
2019-05-20T07:34:04.401Z,31.90
2019-05-20T07:36:33.844Z,28.73
2019-05-20T07:39:04.608Z,28.03
2019-05-20T07:41:33.992Z,31.27
2019-05-20T07:44:03.741Z,29.37
2019-05-20T07:46:34.387Z,29.60
2019-05-20T07:49:23.287Z,29.20
2019-05-20T07:51:52.949Z,27.83
2019-05-20T07:54:23.215Z,26.90
2019-05-20T07:56:55.561Z,24.90
2019-05-20T07:59:26.935Z,24.50
2019-05-20T08:01:56.379Z,26.40
2019-05-20T08:04:25.961Z,23.40
2019-05-20T08:06:55.437Z,24.73
2019-05-20T08:09:24.869Z,23.83
2019-05-20T08:11:54.367Z,25.03
2019-05-20T08:14:23.753Z,23.60
2019-05-20T08:16:53.149Z,25.03
2019-05-20T08:19:22.608Z,22.47
2019-05-20T08:21:52.021Z,28.53
2019-05-20T08:24:21.485Z,30.90
2019-05-20T08:26:50.883Z,33.27
2019-05-20T08:29:20.315Z,36.13
2019-05-20T08:31:49.741Z,32.33
2019-05-20T08:34:19.097Z,26.90
2019-05-20T08:36:48.426Z,27.93
2019-05-20T08:39:17.825Z,21.23
2019-05-20T08:41:47.292Z,22.80
2019-05-20T08:44:16.765Z,21.97
2019-05-20T08:46:46.203Z,26.60
2019-05-20T08:49:15.632Z,32.60
2019-05-20T08:51:44.931Z,27.03
2019-05-20T08:54:14.294Z,27.30
2019-05-20T08:56:43.605Z,22.40
2019-05-20T08:59:13.059Z,27.30
2019-05-20T09:01:42.353Z,30.37
2019-05-20T09:04:11.769Z,26.83
2019-05-20T09:06:41.167Z,25.83
2019-05-20T09:09:12.355Z,27.83
2019-05-20T09:11:41.523Z,24.77
2019-05-20T09:14:10.890Z,30.00
2019-05-20T09:16:40.260Z,33.80
2019-05-20T09:19:09.584Z,27.37
2019-05-20T09:21:38.978Z,26.70
2019-05-20T09:24:08.411Z,22.47
2019-05-20T09:26:37.802Z,22.23
2019-05-20T09:29:11.075Z,21.83
2019-05-20T09:31:40.421Z,23.90
2019-05-20T09:34:09.832Z,27.80
2019-05-20T09:36:39.256Z,24.60
2019-05-20T09:39:08.623Z,21.57
2019-05-20T09:41:38.298Z,21.47
2019-05-20T09:44:07.817Z,24.90
2019-05-20T09:46:38.604Z,23.40
2019-05-20T09:49:07.992Z,24.73
2019-05-20T09:51:37.517Z,25.17
2019-05-20T09:54:06.939Z,23.83
2019-05-20T09:56:36.597Z,20.00
2019-05-20T09:59:06.213Z,23.07
2019-05-20T10:01:39.585Z,23.40
2019-05-20T10:04:07.024Z,23.10
2019-05-20T10:06:36.443Z,20.57
2019-05-20T10:09:07.562Z,22.10
2019-05-20T10:11:37.129Z,24.47
2019-05-20T10:14:09.610Z,23.67
2019-05-20T10:16:39.060Z,24.83
2019-05-20T10:19:08.461Z,27.73
2019-05-20T10:21:39.070Z,24.40
2019-05-20T10:24:08.676Z,30.20
2019-05-20T10:26:38.198Z,30.83
2019-05-20T10:29:07.566Z,26.50
2019-05-20T10:31:36.953Z,30.20
2019-05-20T10:34:06.349Z,26.07
2019-05-20T10:36:35.751Z,26.47
2019-05-20T10:39:07.933Z,25.47
2019-05-20T10:41:37.683Z,25.97
2019-05-20T10:44:07.083Z,25.40
2019-05-20T10:46:36.397Z,26.17
2019-05-20T10:49:05.756Z,27.60
2019-05-20T10:51:35.128Z,25.60
2019-05-20T10:54:04.465Z,24.20
2019-05-20T10:56:35.015Z,22.00
2019-05-20T10:59:04.390Z,29.10
2019-05-20T11:01:33.812Z,29.60
2019-05-20T11:04:03.184Z,31.83
2019-05-20T11:06:32.535Z,30.57
2019-05-20T11:09:13.538Z,36.40
2019-05-20T11:11:32.995Z,29.33
2019-05-20T11:14:02.859Z,31.23
2019-05-20T11:16:32.228Z,31.87
2019-05-20T11:19:01.781Z,31.50
2019-05-20T11:21:31.282Z,31.97
2019-05-20T11:24:00.691Z,30.97
2019-05-20T11:26:30.058Z,30.70
2019-05-20T11:28:59.362Z,32.20
2019-05-20T11:31:28.701Z,28.07
2019-05-20T11:33:58.017Z,30.87
2019-05-20T11:36:27.417Z,31.37
2019-05-20T11:38:56.696Z,36.27
2019-05-20T11:41:52.184Z,31.63
2019-05-20T11:43:57.142Z,32.57
2019-05-20T11:46:26.463Z,33.20
2019-05-20T11:48:55.807Z,33.33
2019-05-20T11:51:25.160Z,33.57
2019-05-20T11:53:54.513Z,31.00
2019-05-20T11:56:23.820Z,34.10
2019-05-20T11:58:53.228Z,32.93
2019-05-20T12:01:22.537Z,33.83
2019-05-20T12:03:52.047Z,34.97
2019-05-20T12:06:21.417Z,35.43
2019-05-20T12:08:50.821Z,33.27
2019-05-20T12:11:20.264Z,32.03
2019-05-20T12:13:49.649Z,31.70
2019-05-20T12:16:19.132Z,34.07
2019-05-20T12:18:48.615Z,35.40
2019-05-20T12:21:18.180Z,32.23
2019-05-20T12:23:47.755Z,29.63
2019-05-20T12:26:17.686Z,35.43
2019-05-20T12:28:47.162Z,29.63
2019-05-20T12:31:18.457Z,32.07
2019-05-20T12:33:47.913Z,30.63
2019-05-20T12:36:17.335Z,29.47
2019-05-20T12:38:46.803Z,31.33
2019-05-20T12:41:16.293Z,35.97
2019-05-20T12:43:45.733Z,30.30
2019-05-20T12:46:15.336Z,31.20
2019-05-20T12:48:44.939Z,33.23
2019-05-20T12:51:14.865Z,29.50
2019-05-20T12:53:44.793Z,28.93
2019-05-20T12:56:14.228Z,28.60
2019-05-20T12:58:43.869Z,30.20
2019-05-20T13:01:13.412Z,33.33
2019-05-20T13:03:43.358Z,35.37
2019-05-20T13:06:12.949Z,28.60
2019-05-20T13:08:42.518Z,34.27
2019-05-20T13:11:11.990Z,35.23
2019-05-20T13:13:41.440Z,32.97
2019-05-20T13:16:11.326Z,31.93
2019-05-20T13:18:54.992Z,30.27
2019-05-20T13:21:12.177Z,31.30
2019-05-20T13:23:41.638Z,29.07
2019-05-20T13:26:11.167Z,32.57
2019-05-20T13:28:40.621Z,31.87
2019-05-20T13:31:10.255Z,35.23
2019-05-20T13:33:39.616Z,32.17
2019-05-20T13:36:09.034Z,32.30
2019-05-20T13:38:38.468Z,33.60
2019-05-20T13:41:07.898Z,33.20
2019-05-20T13:43:37.279Z,37.03
2019-05-20T13:46:06.676Z,34.67
2019-05-20T13:48:36.032Z,32.97
2019-05-20T13:51:05.393Z,34.37
2019-05-20T13:53:34.725Z,34.97
2019-05-20T13:56:04.121Z,32.77
2019-05-20T13:58:33.579Z,37.63
2019-05-20T14:01:03.019Z,33.73
2019-05-20T14:03:32.426Z,35.60
2019-05-20T14:06:01.803Z,33.83
2019-05-20T14:08:31.107Z,35.63
2019-05-20T14:11:04.150Z,41.40
2019-05-20T14:13:31.571Z,36.40
2019-05-20T14:16:00.944Z,33.90
2019-05-20T14:18:30.373Z,35.07
2019-05-20T14:21:00.977Z,34.23
2019-05-20T14:23:30.436Z,37.33
2019-05-20T14:25:59.798Z,33.03
2019-05-20T14:28:29.243Z,35.87
2019-05-20T14:30:58.672Z,33.33
2019-05-20T14:33:28.011Z,33.73
2019-05-20T14:35:57.365Z,37.23
2019-05-20T14:38:26.700Z,32.80
2019-05-20T14:40:56.079Z,32.07
2019-05-20T14:43:25.533Z,34.80
2019-05-20T14:45:55.016Z,32.00
2019-05-20T14:48:24.435Z,31.93
2019-05-20T14:50:53.772Z,32.33
2019-05-20T14:53:23.151Z,32.53
2019-05-20T14:55:52.608Z,34.30
2019-05-20T14:58:21.953Z,37.07
2019-05-20T15:00:51.337Z,32.90
2019-05-20T15:03:20.684Z,39.77
2019-05-20T15:05:50.233Z,39.57
2019-05-20T15:08:19.805Z,35.63
2019-05-20T15:10:50.254Z,41.33
2019-05-20T15:13:19.589Z,41.40
2019-05-20T15:15:48.940Z,35.33
2019-05-20T15:18:18.297Z,41.60
2019-05-20T15:20:47.643Z,38.47
2019-05-20T15:23:17.003Z,38.37
2019-05-20T15:25:46.470Z,41.13
2019-05-20T15:28:15.921Z,40.57
2019-05-20T15:30:45.293Z,40.60
2019-05-20T15:33:14.654Z,37.07
2019-05-20T15:35:44.049Z,45.77
2019-05-20T15:38:13.439Z,39.67
2019-05-20T15:40:54.591Z,36.60
2019-05-20T15:43:24.050Z,38.87
2019-05-20T15:45:53.425Z,39.60
2019-05-20T15:48:24.564Z,42.90
2019-05-20T15:50:54.021Z,44.27
2019-05-20T15:53:23.425Z,39.73
2019-05-20T15:55:52.857Z,38.80
2019-05-20T15:58:23.899Z,35.13
2019-05-20T16:00:53.489Z,40.97
2019-05-20T16:03:22.874Z,42.30
2019-05-20T16:05:52.339Z,44.17
2019-05-20T16:08:21.727Z,41.00
2019-05-20T16:10:51.176Z,36.53
2019-05-20T16:13:20.709Z,41.00
2019-05-20T16:15:50.126Z,35.27
2019-05-20T16:18:19.508Z,32.80
2019-05-20T16:20:48.878Z,34.93
2019-05-20T16:23:18.531Z,39.43
2019-05-20T16:25:48.462Z,32.60
2019-05-20T16:28:17.861Z,31.90
2019-05-20T16:30:47.422Z,32.40
2019-05-20T16:33:16.851Z,31.20
2019-05-20T16:35:46.322Z,30.57
2019-05-20T16:38:15.762Z,29.97
2019-05-20T16:40:45.415Z,34.00
2019-05-20T16:43:14.880Z,33.23
2019-05-20T16:45:44.231Z,29.23
2019-05-20T16:48:13.660Z,32.23
2019-05-20T16:50:42.999Z,31.23
2019-05-20T16:53:12.571Z,32.47
2019-05-20T16:55:41.940Z,30.20
2019-05-20T16:58:13.159Z,33.57
2019-05-20T17:00:42.867Z,31.90
2019-05-20T17:03:12.233Z,28.47
2019-05-20T17:05:41.575Z,33.77
2019-05-20T17:08:11.072Z,32.20
2019-05-20T17:10:40.603Z,30.97
2019-05-20T17:13:10.080Z,30.33
2019-05-20T17:15:47.393Z,37.30
2019-05-20T17:18:16.890Z,32.43
2019-05-20T17:20:46.598Z,30.57
2019-05-20T17:23:19.097Z,32.17
2019-05-20T17:25:50.819Z,31.67
2019-05-20T17:28:19.683Z,30.80
2019-05-20T17:30:49.224Z,30.70
2019-05-20T17:33:18.661Z,33.13
2019-05-20T17:35:48.077Z,32.97
2019-05-20T17:38:17.502Z,31.20
2019-05-20T17:40:46.992Z,35.23
2019-05-20T17:43:19.875Z,34.80
2019-05-20T17:45:48.735Z,35.00
2019-05-20T17:48:18.093Z,36.73
2019-05-20T17:50:47.856Z,33.57
2019-05-20T17:53:17.201Z,31.17
2019-05-20T17:55:46.700Z,31.97
2019-05-20T17:58:16.168Z,33.47
2019-05-20T18:00:45.561Z,32.20
2019-05-20T18:03:15.001Z,32.87
2019-05-20T18:05:44.578Z,30.83
2019-05-20T18:08:14.374Z,31.40
2019-05-20T18:10:43.811Z,29.67
2019-05-20T18:13:13.296Z,28.60
2019-05-20T18:15:42.828Z,26.80
2019-05-20T18:18:12.267Z,31.40
2019-05-20T18:20:41.610Z,28.40
2019-05-20T18:23:11.032Z,29.70
2019-05-20T18:25:40.467Z,29.33
2019-05-20T18:28:09.868Z,32.63
2019-05-20T18:30:39.291Z,29.57
2019-05-20T18:33:10.566Z,25.30
2019-05-20T18:35:39.944Z,33.40
2019-05-20T18:38:09.472Z,25.97
2019-05-20T18:40:39.059Z,27.93
2019-05-20T18:43:08.800Z,28.80
2019-05-20T18:45:38.199Z,26.37
2019-05-20T18:48:07.730Z,28.93
2019-05-20T18:50:37.063Z,29.10
2019-05-20T18:53:06.432Z,29.00
2019-05-20T18:55:35.875Z,24.13
2019-05-20T18:58:05.357Z,26.93
2019-05-20T19:00:34.914Z,26.27
2019-05-20T19:03:04.532Z,28.43
2019-05-20T19:05:34.011Z,27.70
2019-05-20T19:08:03.469Z,27.20
2019-05-20T19:10:32.849Z,25.33
2019-05-20T19:13:02.249Z,25.83
2019-05-20T19:15:31.777Z,26.33
2019-05-20T19:18:01.172Z,25.50
2019-05-20T19:20:30.668Z,27.00
2019-05-20T19:23:00.139Z,27.73
2019-05-20T19:25:37.519Z,28.17
2019-05-20T19:28:01.677Z,32.10
2019-05-20T19:30:31.075Z,30.57
2019-05-20T19:33:00.497Z,29.87
2019-05-20T19:35:29.969Z,28.13
2019-05-20T19:37:59.370Z,31.00
2019-05-20T19:40:28.830Z,31.97
2019-05-20T19:42:58.290Z,28.90
2019-05-20T19:45:27.775Z,33.10
2019-05-20T19:47:57.121Z,32.03
2019-05-20T19:50:26.541Z,29.13
2019-05-20T19:52:56.009Z,30.73
2019-05-20T19:55:25.468Z,28.47
2019-05-20T19:57:54.838Z,31.57
2019-05-20T20:00:56.650Z,32.57
2019-05-20T20:03:25.551Z,36.20
2019-05-20T20:05:55.017Z,31.33
2019-05-20T20:08:24.444Z,31.93
2019-05-20T20:10:53.888Z,31.37
2019-05-20T20:13:23.361Z,32.20
2019-05-20T20:15:52.920Z,36.57
2019-05-20T20:18:22.322Z,35.53
2019-05-20T20:20:54.997Z,33.97
2019-05-20T20:23:24.491Z,36.50
2019-05-20T20:25:54.357Z,34.83
2019-05-20T20:28:25.381Z,36.27
2019-05-20T20:30:54.800Z,34.30
2019-05-20T20:33:24.182Z,31.20
2019-05-20T20:35:53.680Z,34.27
2019-05-20T20:38:25.294Z,33.27
2019-05-20T20:40:54.729Z,35.03
2019-05-20T20:43:24.154Z,31.77
2019-05-20T20:45:56.415Z,31.33
2019-05-20T20:48:25.846Z,33.50
2019-05-20T20:50:55.267Z,35.47
2019-05-20T20:53:24.649Z,34.90
2019-05-20T20:55:54.132Z,35.27
2019-05-20T21:01:11.092Z,40.40
2019-05-20T21:03:40.472Z,39.73
2019-05-20T21:06:09.880Z,35.63
2019-05-20T21:08:50.978Z,38.40
2019-05-20T21:11:20.420Z,39.57
2019-05-20T21:13:55.988Z,44.43
2019-05-20T21:16:25.322Z,42.13
2019-05-20T21:18:54.801Z,38.50
2019-05-20T21:21:57.745Z,44.17
2019-05-20T21:24:27.124Z,47.27
2019-05-20T21:26:56.538Z,43.13
2019-05-20T21:32:13.324Z,45.97
2019-05-20T21:34:42.729Z,48.57
2019-05-20T21:37:12.375Z,47.70
2019-05-20T21:39:53.971Z,43.53
2019-05-20T21:42:23.553Z,43.40
2019-05-20T21:44:55.965Z,48.67
2019-05-20T21:47:29.103Z,47.30
2019-05-20T21:49:58.580Z,44.33
2019-05-20T21:52:27.979Z,46.67
2019-05-20T21:54:57.331Z,42.23
2019-05-20T21:57:26.831Z,49.80
2019-05-20T21:59:56.173Z,46.20
2019-05-20T22:02:26.711Z,40.50
2019-05-20T22:04:57.886Z,42.30
2019-05-20T22:07:27.249Z,37.83
2019-05-20T22:09:56.668Z,38.23
2019-05-20T22:12:26.232Z,41.07
2019-05-20T22:14:55.617Z,39.27
2019-05-20T22:17:24.953Z,40.80
2019-05-20T22:19:54.356Z,34.67
2019-05-20T22:22:52.017Z,37.60
2019-05-20T22:25:21.374Z,38.77
2019-05-20T22:27:50.757Z,37.07
2019-05-20T22:30:20.135Z,41.50
2019-05-20T22:32:55.408Z,39.30
2019-05-20T22:35:24.777Z,47.33
2019-05-20T22:37:54.107Z,40.60
2019-05-20T22:40:53.620Z,42.70
2019-05-20T22:43:22.921Z,43.97
2019-05-20T22:45:55.486Z,45.37
2019-05-20T22:48:25.724Z,47.83
2019-05-20T22:50:55.154Z,47.83
2019-05-20T22:56:13.979Z,46.60
2019-05-20T22:58:55.295Z,44.33
2019-05-20T23:01:55.023Z,41.73
2019-05-20T23:04:24.332Z,46.20
2019-05-20T23:06:53.774Z,50.60
2019-05-20T23:09:23.104Z,48.30
2019-05-20T23:11:52.472Z,53.03
2019-05-20T23:14:21.808Z,48.00
2019-05-20T23:16:51.565Z,46.57
2019-05-20T23:19:21.038Z,42.80
2019-05-20T23:21:50.387Z,42.70
2019-05-20T23:24:19.710Z,43.13
2019-05-20T23:26:49.053Z,47.67
2019-05-20T23:29:18.377Z,44.37
2019-05-20T23:31:47.863Z,53.67
2019-05-20T23:34:17.280Z,41.03
2019-05-20T23:36:46.673Z,43.13
2019-05-20T23:39:15.970Z,44.17
2019-05-20T23:41:45.339Z,46.47
2019-05-20T23:44:14.675Z,39.77
2019-05-20T23:46:45.096Z,37.93
2019-05-20T23:49:14.546Z,38.20
2019-05-20T23:51:43.945Z,39.77
2019-05-20T23:54:13.234Z,38.97
2019-05-20T23:56:42.561Z,38.30
2019-05-20T23:59:11.904Z,37.60
